createdAt,value
2023-03-04T00:02:23.616Z,38.45
2023-03-04T00:04:49.943Z,38.47
2023-03-04T00:07:16.340Z,38.44
2023-03-04T00:09:42.678Z,38.49
2023-03-04T00:12:09.060Z,38.52
2023-03-04T00:14:35.418Z,38.55
2023-03-04T00:17:01.781Z,38.52
2023-03-04T00:19:28.126Z,38.52
2023-03-04T00:21:54.508Z,38.56
2023-03-04T00:24:20.846Z,38.56
2023-03-04T00:26:47.238Z,38.56
2023-03-04T00:29:16.766Z,38.59
2023-03-04T00:31:43.187Z,38.61
2023-03-04T00:34:09.498Z,38.62
2023-03-04T00:36:35.882Z,38.63
2023-03-04T00:39:02.222Z,38.65
2023-03-04T00:41:28.608Z,38.64
2023-03-04T00:43:54.955Z,38.70
2023-03-04T00:46:21.384Z,38.75
2023-03-04T00:48:47.684Z,38.75
2023-03-04T00:51:14.090Z,38.75
2023-03-04T00:53:40.424Z,38.76
2023-03-04T00:56:06.813Z,38.82
2023-03-04T00:58:33.155Z,38.78
2023-03-04T01:00:59.590Z,38.82
2023-03-04T01:03:25.883Z,38.82
2023-03-04T01:05:52.273Z,38.79
2023-03-04T01:08:18.637Z,38.82
2023-03-04T01:10:45.004Z,38.86
2023-03-04T01:13:11.348Z,38.91
2023-03-04T01:15:37.737Z,38.95
2023-03-04T01:18:04.134Z,38.93
2023-03-04T01:20:30.509Z,38.97
2023-03-04T01:22:56.886Z,38.94
2023-03-04T01:25:23.274Z,38.93
2023-03-04T01:27:49.616Z,39.02
2023-03-04T01:30:16.001Z,39.01
2023-03-04T01:32:42.396Z,39.03
2023-03-04T01:35:08.796Z,39.08
2023-03-04T01:37:36.365Z,39.04
2023-03-04T01:40:01.523Z,39.06
2023-03-04T01:42:27.865Z,39.10
2023-03-04T01:44:54.261Z,39.10
2023-03-04T01:47:20.600Z,39.12
2023-03-04T01:49:46.990Z,39.13
2023-03-04T01:52:13.359Z,39.16
2023-03-04T01:54:39.771Z,39.13
2023-03-04T01:57:06.103Z,39.16
2023-03-04T01:59:32.484Z,39.17
2023-03-04T02:01:58.842Z,39.18
2023-03-04T02:04:25.382Z,39.23
2023-03-04T02:06:51.640Z,39.23
2023-03-04T02:09:19.680Z,39.24
2023-03-04T02:11:44.372Z,39.24
2023-03-04T02:14:10.769Z,39.25
2023-03-04T02:16:37.106Z,39.29
2023-03-04T02:19:03.483Z,39.32
2023-03-04T02:21:29.816Z,39.33
2023-03-04T02:23:56.208Z,39.37
2023-03-04T02:26:22.552Z,39.37
2023-03-04T02:28:48.951Z,39.39
2023-03-04T02:31:15.314Z,39.40
2023-03-04T02:33:41.663Z,39.40
2023-03-04T02:36:08.006Z,39.42
2023-03-04T02:38:34.397Z,39.42
2023-03-04T02:41:00.772Z,39.47
2023-03-04T02:43:27.160Z,39.47
2023-03-04T02:45:53.534Z,39.51
2023-03-04T02:48:19.926Z,39.53
2023-03-04T02:50:47.345Z,39.57
2023-03-04T02:53:12.699Z,39.53
2023-03-04T02:55:39.070Z,39.57
2023-03-04T02:58:05.474Z,39.61
2023-03-04T03:00:31.843Z,39.60
2023-03-04T03:02:58.310Z,39.61
2023-03-04T03:05:24.560Z,39.60
2023-03-04T03:07:50.977Z,39.63
2023-03-04T03:10:17.305Z,39.65
2023-03-04T03:12:43.787Z,39.66
2023-03-04T03:15:10.130Z,39.69
2023-03-04T03:17:36.513Z,39.70
2023-03-04T03:20:02.849Z,39.67
2023-03-04T03:22:29.233Z,39.67
2023-03-04T03:24:55.572Z,39.68
2023-03-04T03:27:21.965Z,39.72
2023-03-04T03:29:48.311Z,39.78
2023-03-04T03:32:14.772Z,39.77
2023-03-04T03:34:41.041Z,39.79
2023-03-04T03:37:07.448Z,39.81
2023-03-04T03:39:33.792Z,39.83
2023-03-04T03:42:00.198Z,39.85
2023-03-04T03:44:26.537Z,39.86
2023-03-04T03:46:52.933Z,39.84
2023-03-04T03:49:19.268Z,39.87
2023-03-04T03:51:45.648Z,39.83
2023-03-04T03:54:11.998Z,39.85
2023-03-04T03:56:38.377Z,39.85
2023-03-04T03:59:04.721Z,39.85
2023-03-04T04:01:31.114Z,39.85
2023-03-04T04:03:57.456Z,39.86
2023-03-04T04:06:23.834Z,39.87
2023-03-04T04:08:51.410Z,39.88
2023-03-04T04:11:16.531Z,39.94
2023-03-04T04:13:42.942Z,39.90
2023-03-04T04:16:09.309Z,39.92
2023-03-04T04:18:35.661Z,39.94
2023-03-04T04:21:02.002Z,39.95
2023-03-04T04:23:28.411Z,39.99
2023-03-04T04:25:54.746Z,39.99
2023-03-04T04:28:21.132Z,40.01
2023-03-04T04:30:47.542Z,40.03
2023-03-04T04:33:13.865Z,40.00
2023-03-04T04:35:40.215Z,40.03
2023-03-04T04:38:06.597Z,40.06
2023-03-04T04:40:32.957Z,40.07
2023-03-04T04:42:59.333Z,40.06
2023-03-04T04:45:25.688Z,40.09
2023-03-04T04:47:52.070Z,40.06
2023-03-04T04:50:18.413Z,40.07
2023-03-04T04:52:44.802Z,40.06
2023-03-04T04:55:11.145Z,40.06
2023-03-04T04:57:37.547Z,40.09
2023-03-04T05:00:03.897Z,40.10
2023-03-04T05:02:30.274Z,40.12
2023-03-04T05:04:56.615Z,40.12
2023-03-04T05:07:23.003Z,40.12
2023-03-04T05:09:49.340Z,40.13
2023-03-04T05:12:15.732Z,40.14
2023-03-04T05:14:42.097Z,40.12
2023-03-04T05:17:08.466Z,40.14
2023-03-04T05:19:34.810Z,40.14
2023-03-04T05:22:01.198Z,40.16
2023-03-04T05:24:27.533Z,40.23
2023-03-04T05:26:53.933Z,40.21
2023-03-04T05:29:20.293Z,40.19
2023-03-04T05:31:48.359Z,40.23
2023-03-04T05:34:13.002Z,40.22
2023-03-04T05:36:39.393Z,40.24
2023-03-04T05:39:05.724Z,40.23
2023-03-04T05:41:32.134Z,40.26
2023-03-04T05:43:59.422Z,40.25
2023-03-04T05:46:24.867Z,40.30
2023-03-04T05:48:51.200Z,40.30
2023-03-04T05:51:17.587Z,40.32
2023-03-04T05:53:43.962Z,40.38
2023-03-04T05:56:10.346Z,40.39
2023-03-04T05:58:36.705Z,40.40
2023-03-04T06:01:03.057Z,40.35
2023-03-04T06:03:29.460Z,40.38
2023-03-04T06:05:55.789Z,40.41
2023-03-04T06:08:22.125Z,40.30
2023-03-04T06:10:48.538Z,40.15
2023-03-04T06:13:14.869Z,40.03
2023-03-04T06:15:41.300Z,39.90
2023-03-04T06:18:07.654Z,39.78
2023-03-04T06:20:34.040Z,39.69
2023-03-04T06:23:00.392Z,39.55
2023-03-04T06:25:26.762Z,39.50
2023-03-04T06:27:55.093Z,39.43
2023-03-04T06:30:19.557Z,39.30
2023-03-04T06:32:45.882Z,39.28
2023-03-04T06:35:12.273Z,39.14
2023-03-04T06:37:38.663Z,39.06
2023-03-04T06:40:05.043Z,39.07
2023-03-04T06:42:31.411Z,38.94
2023-03-04T06:44:57.806Z,38.87
2023-03-04T06:47:24.149Z,38.82
2023-03-04T06:49:50.542Z,38.79
2023-03-04T06:52:16.877Z,38.72
2023-03-04T06:54:43.274Z,38.74
2023-03-04T06:57:09.619Z,38.68
2023-03-04T06:59:36.003Z,38.70
2023-03-04T07:02:02.345Z,38.63
2023-03-04T07:04:28.772Z,38.55
2023-03-04T07:06:55.074Z,38.51
2023-03-04T07:09:21.456Z,38.44
2023-03-04T07:11:48.818Z,38.45
2023-03-04T07:14:14.177Z,38.39
2023-03-04T07:16:40.535Z,38.40
2023-03-04T07:19:06.896Z,38.32
2023-03-04T07:21:33.251Z,38.28
2023-03-04T07:23:59.662Z,38.24
2023-03-04T07:26:26.048Z,38.20
2023-03-04T07:28:52.422Z,38.19
2023-03-04T07:31:18.796Z,38.14
2023-03-04T07:33:45.154Z,38.13
2023-03-04T07:36:11.496Z,38.09
2023-03-04T07:38:37.876Z,38.06
2023-03-04T07:41:04.253Z,38.03
2023-03-04T07:43:30.601Z,38.03
2023-03-04T07:45:56.973Z,38.01
2023-03-04T07:48:23.323Z,38.00
2023-03-04T07:50:49.706Z,37.96
2023-03-04T07:53:16.044Z,37.92
2023-03-04T07:55:42.446Z,37.90
2023-03-04T07:58:08.873Z,37.87
2023-03-04T08:00:35.213Z,37.80
2023-03-04T08:03:01.597Z,37.84
2023-03-04T08:05:27.933Z,37.83
2023-03-04T08:07:54.325Z,37.78
2023-03-04T08:10:20.667Z,37.72
2023-03-04T08:12:47.068Z,37.71
2023-03-04T08:15:13.399Z,37.66
2023-03-04T08:17:39.791Z,37.64
2023-03-04T08:20:06.131Z,37.66
2023-03-04T08:22:32.523Z,37.62
2023-03-04T08:24:58.861Z,37.61
2023-03-04T08:27:25.249Z,37.58
2023-03-04T08:29:51.600Z,37.55
2023-03-04T08:32:18.042Z,37.50
2023-03-04T08:34:44.326Z,37.47
2023-03-04T08:37:10.703Z,37.41
2023-03-04T08:39:37.048Z,37.32
2023-03-04T08:42:03.432Z,37.28
2023-03-04T08:44:29.787Z,37.23
2023-03-04T08:46:57.876Z,37.23
2023-03-04T08:49:22.509Z,37.15
2023-03-04T08:51:48.935Z,37.15
2023-03-04T08:54:15.273Z,37.07
2023-03-04T08:56:41.713Z,37.09
2023-03-04T08:59:08.055Z,37.05
2023-03-04T09:01:34.444Z,36.99
2023-03-04T09:04:00.821Z,36.97
2023-03-04T09:06:27.228Z,36.92
2023-03-04T09:08:53.593Z,36.95
2023-03-04T09:11:19.959Z,36.89
2023-03-04T09:13:46.343Z,36.82
2023-03-04T09:16:12.767Z,36.78
2023-03-04T09:18:39.021Z,36.71
2023-03-04T09:21:05.397Z,36.71
2023-03-04T09:23:31.746Z,36.71
2023-03-04T09:25:58.139Z,36.67
2023-03-04T09:28:24.485Z,36.67
2023-03-04T09:30:50.871Z,36.62
2023-03-04T09:33:18.432Z,36.60
2023-03-04T09:35:43.640Z,36.58
2023-03-04T09:38:09.935Z,36.53
2023-03-04T09:40:36.339Z,36.52
2023-03-04T09:43:02.688Z,36.48
2023-03-04T09:45:29.072Z,36.45
2023-03-04T09:47:55.453Z,36.39
2023-03-04T09:50:21.791Z,36.34
2023-03-04T09:52:48.128Z,36.36
2023-03-04T09:55:14.512Z,36.34
2023-03-04T09:57:40.864Z,36.30
2023-03-04T10:00:07.240Z,36.29
2023-03-04T10:02:33.572Z,36.30
2023-03-04T10:05:01.735Z,36.28
2023-03-04T10:07:26.303Z,36.21
2023-03-04T10:09:52.692Z,36.26
2023-03-04T10:12:19.022Z,36.17
2023-03-04T10:14:45.419Z,36.17
2023-03-04T10:17:11.763Z,36.15
2023-03-04T10:19:38.141Z,36.17
2023-03-04T10:22:04.477Z,36.11
2023-03-04T10:24:30.864Z,36.12
2023-03-04T10:26:57.205Z,36.05
2023-03-04T10:29:23.586Z,36.02
2023-03-04T10:31:49.978Z,36.06
2023-03-04T10:34:16.344Z,36.00
2023-03-04T10:36:44.056Z,35.98
2023-03-04T10:39:09.047Z,35.98
2023-03-04T10:41:35.453Z,35.96
2023-03-04T10:44:01.773Z,35.91
2023-03-04T10:46:28.120Z,35.85
2023-03-04T10:48:54.499Z,35.85
2023-03-04T10:51:20.842Z,35.81
2023-03-04T10:53:47.221Z,35.77
2023-03-04T10:56:13.562Z,35.72
2023-03-04T10:58:39.945Z,35.74
2023-03-04T11:01:06.358Z,35.76
2023-03-04T11:03:32.756Z,35.74
2023-03-04T11:05:59.064Z,35.70
2023-03-04T11:08:25.456Z,35.69
2023-03-04T11:10:51.805Z,35.66
2023-03-04T11:13:18.191Z,35.68
2023-03-04T11:15:44.523Z,35.60
2023-03-04T11:18:10.904Z,35.60
2023-03-04T11:20:37.242Z,35.56
2023-03-04T11:23:04.588Z,35.51
2023-03-04T11:25:29.976Z,35.47
2023-03-04T11:27:56.380Z,35.48
2023-03-04T11:30:22.719Z,35.30
2023-03-04T11:32:49.139Z,35.38
2023-03-04T11:35:16.781Z,35.43
2023-03-04T11:37:41.878Z,35.41
2023-03-04T11:40:08.209Z,35.39
2023-03-04T11:42:34.600Z,35.32
2023-03-04T11:45:00.956Z,35.27
2023-03-04T11:47:27.347Z,35.29
2023-03-04T11:49:53.686Z,35.22
2023-03-04T11:52:20.075Z,35.19
2023-03-04T11:54:46.413Z,35.23
2023-03-04T11:57:12.926Z,35.06
2023-03-04T11:59:39.160Z,35.10
2023-03-04T12:02:05.547Z,35.05
2023-03-04T12:04:31.974Z,35.06
2023-03-04T12:06:58.271Z,34.95
2023-03-04T12:09:24.643Z,35.07
2023-03-04T12:11:51.028Z,35.03
2023-03-04T12:14:20.305Z,34.97
2023-03-04T12:16:43.755Z,34.94
2023-03-04T12:19:10.104Z,34.89
2023-03-04T12:21:36.486Z,34.94
2023-03-04T12:24:02.828Z,34.90
2023-03-04T12:26:29.209Z,34.91
2023-03-04T12:28:55.551Z,34.92
2023-03-04T12:31:22.399Z,34.85
2023-03-04T12:33:48.324Z,34.92
2023-03-04T12:36:14.688Z,34.86
2023-03-04T12:38:41.028Z,34.81
2023-03-04T12:41:07.419Z,34.84
2023-03-04T12:43:36.009Z,34.85
2023-03-04T12:46:00.147Z,34.81
2023-03-04T12:48:26.490Z,34.84
2023-03-04T12:50:52.875Z,34.80
2023-03-04T12:53:19.258Z,34.77
2023-03-04T12:55:45.640Z,34.75
2023-03-04T12:58:11.996Z,34.75
2023-03-04T13:00:38.383Z,34.74
2023-03-04T13:03:04.840Z,34.76
2023-03-04T13:05:31.131Z,34.72
2023-03-04T13:07:57.476Z,34.72
2023-03-04T13:10:23.865Z,34.74
2023-03-04T13:12:50.212Z,34.68
2023-03-04T13:15:16.594Z,34.74
2023-03-04T13:17:43.974Z,34.70
2023-03-04T13:20:11.024Z,34.75
2023-03-04T13:22:35.706Z,34.73
2023-03-04T13:25:02.077Z,34.66
2023-03-04T13:27:28.413Z,34.71
2023-03-04T13:29:56.419Z,34.71
2023-03-04T13:32:21.177Z,34.71
2023-03-04T13:34:47.548Z,34.76
2023-03-04T13:37:15.195Z,34.69
2023-03-04T13:39:41.541Z,34.64
2023-03-04T13:42:06.688Z,34.67
2023-03-04T13:44:33.079Z,34.59
2023-03-04T13:46:59.429Z,34.58
2023-03-04T13:49:25.811Z,34.66
2023-03-04T13:51:52.148Z,34.51
2023-03-04T13:54:18.540Z,34.48
2023-03-04T13:56:44.908Z,34.47
2023-03-04T13:59:11.293Z,34.51
2023-03-04T14:01:37.633Z,34.42
2023-03-04T14:04:04.062Z,34.43
2023-03-04T14:06:30.364Z,34.42
2023-03-04T14:08:56.777Z,34.42
2023-03-04T14:11:23.122Z,34.43
2023-03-04T14:13:49.532Z,34.49
2023-03-04T14:16:15.899Z,34.54
2023-03-04T14:18:43.496Z,34.50
2023-03-04T14:21:08.600Z,34.35
2023-03-04T14:23:34.981Z,34.47
2023-03-04T14:26:01.316Z,34.50
2023-03-04T14:28:27.718Z,34.34
2023-03-04T14:30:54.085Z,34.15
2023-03-04T14:33:20.447Z,34.24
2023-03-04T14:35:46.917Z,34.23
2023-03-04T14:38:13.187Z,34.18
2023-03-04T14:40:39.549Z,34.23
2023-03-04T14:43:05.889Z,34.49
2023-03-04T14:45:32.338Z,34.55
2023-03-04T14:47:58.613Z,34.44
2023-03-04T14:50:25.010Z,34.50
2023-03-04T14:52:51.344Z,34.50
2023-03-04T14:55:17.733Z,34.59
2023-03-04T14:57:44.088Z,34.54
2023-03-04T15:00:10.458Z,34.60
2023-03-04T15:02:36.798Z,34.62
2023-03-04T15:05:03.185Z,34.63
2023-03-04T15:07:29.518Z,34.58
2023-03-04T15:09:55.936Z,34.47
2023-03-04T15:12:22.252Z,34.57
2023-03-04T15:14:48.643Z,34.61
2023-03-04T15:17:15.040Z,34.63
2023-03-04T15:19:41.396Z,34.62
2023-03-04T15:22:07.754Z,34.69
2023-03-04T15:24:34.128Z,34.73
2023-03-04T15:27:00.499Z,34.83
2023-03-04T15:29:26.891Z,34.83
2023-03-04T15:31:53.232Z,34.86
2023-03-04T15:34:19.634Z,34.92
2023-03-04T15:36:45.980Z,34.96
2023-03-04T15:39:12.368Z,34.92
2023-03-04T15:41:38.697Z,34.97
2023-03-04T15:44:05.086Z,34.89
2023-03-04T15:46:31.433Z,34.96
2023-03-04T15:48:57.823Z,35.00
2023-03-04T15:51:24.168Z,35.04
2023-03-04T15:53:50.552Z,35.14
2023-03-04T15:56:16.890Z,35.17
2023-03-04T15:58:43.302Z,35.21
2023-03-04T16:01:09.653Z,35.26
2023-03-04T16:03:36.003Z,35.22
2023-03-04T16:06:02.396Z,35.28
2023-03-04T16:08:28.727Z,35.28
2023-03-04T16:10:55.071Z,35.35
2023-03-04T16:13:21.461Z,35.34
2023-03-04T16:15:47.866Z,35.37
2023-03-04T16:18:14.200Z,35.40
2023-03-04T16:20:40.548Z,35.45
2023-03-04T16:23:06.925Z,35.50
2023-03-04T16:25:33.262Z,35.55
2023-03-04T16:27:59.653Z,35.64
2023-03-04T16:30:25.989Z,35.61
2023-03-04T16:32:52.395Z,35.70
2023-03-04T16:35:18.846Z,35.71
2023-03-04T16:37:45.125Z,35.76
2023-03-04T16:40:11.468Z,35.76
2023-03-04T16:42:37.862Z,35.84
2023-03-04T16:45:04.206Z,35.82
2023-03-04T16:47:30.589Z,35.82
2023-03-04T16:49:56.934Z,35.90
2023-03-04T16:52:23.309Z,35.89
2023-03-04T16:54:49.648Z,35.93
2023-03-04T16:57:16.049Z,35.95
2023-03-04T16:59:42.382Z,35.98
2023-03-04T17:02:08.772Z,35.99
2023-03-04T17:04:35.128Z,36.15
2023-03-04T17:07:01.494Z,36.05
2023-03-04T17:09:27.861Z,36.04
2023-03-04T17:11:54.246Z,36.11
2023-03-04T17:14:20.593Z,36.08
2023-03-04T17:16:46.977Z,36.15
2023-03-04T17:19:13.323Z,36.17
2023-03-04T17:21:39.726Z,36.17
2023-03-04T17:24:06.075Z,36.21
2023-03-04T17:26:32.457Z,36.23
2023-03-04T17:28:58.795Z,36.28
2023-03-04T17:31:25.240Z,36.29
2023-03-04T17:33:51.516Z,36.31
2023-03-04T17:36:17.925Z,36.31
2023-03-04T17:38:44.263Z,36.35
2023-03-04T17:41:10.680Z,36.41
2023-03-04T17:43:37.032Z,36.41
2023-03-04T17:46:03.413Z,36.42
2023-03-04T17:48:29.750Z,36.42
2023-03-04T17:50:56.143Z,36.50
2023-03-04T17:53:22.479Z,36.49
2023-03-04T17:55:48.871Z,36.54
2023-03-04T17:58:15.219Z,36.49
2023-03-04T18:00:41.645Z,36.56
2023-03-04T18:03:07.950Z,36.58
2023-03-04T18:05:34.380Z,36.66
2023-03-04T18:08:00.703Z,36.66
2023-03-04T18:10:27.098Z,36.68
2023-03-04T18:12:53.428Z,36.74
2023-03-04T18:15:19.849Z,36.73
2023-03-04T18:17:46.188Z,36.80
2023-03-04T18:20:12.580Z,36.80
2023-03-04T18:22:38.923Z,36.82
2023-03-04T18:25:05.350Z,36.88
2023-03-04T18:27:31.689Z,36.88
2023-03-04T18:29:58.077Z,36.90
2023-03-04T18:32:24.449Z,36.93
2023-03-04T18:34:50.809Z,36.93
2023-03-04T18:37:17.147Z,36.95
2023-03-04T18:39:43.546Z,36.97
2023-03-04T18:42:09.896Z,36.98
2023-03-04T18:44:36.277Z,37.02
2023-03-04T18:47:02.613Z,37.08
2023-03-04T18:49:29.012Z,37.10
2023-03-04T18:51:55.375Z,37.09
2023-03-04T18:54:21.756Z,37.14
2023-03-04T18:56:48.106Z,37.20
2023-03-04T18:59:14.568Z,37.19
2023-03-04T19:01:40.943Z,37.21
2023-03-04T19:04:07.363Z,37.21
2023-03-04T19:06:33.688Z,37.30
2023-03-04T19:09:00.060Z,37.29
2023-03-04T19:11:26.407Z,37.33
2023-03-04T19:13:52.801Z,37.32
2023-03-04T19:16:19.196Z,37.39
2023-03-04T19:18:45.526Z,37.37
2023-03-04T19:21:11.872Z,37.42
2023-03-04T19:23:38.252Z,37.44
2023-03-04T19:26:04.638Z,37.48
2023-03-04T19:28:31.026Z,37.51
2023-03-04T19:30:57.429Z,37.54
2023-03-04T19:33:23.782Z,37.55
2023-03-04T19:35:50.186Z,37.55
2023-03-04T19:38:16.549Z,37.60
2023-03-04T19:40:42.875Z,37.61
2023-03-04T19:43:09.271Z,37.65
2023-03-04T19:45:35.629Z,37.69
2023-03-04T19:48:01.997Z,37.73
2023-03-04T19:50:28.354Z,37.76
2023-03-04T19:52:54.729Z,37.75
2023-03-04T19:55:21.073Z,37.80
2023-03-04T19:57:47.456Z,37.80
2023-03-04T20:00:14.775Z,37.81
2023-03-04T20:02:40.193Z,37.86
2023-03-04T20:05:06.549Z,37.85
2023-03-04T20:07:32.943Z,37.90
2023-03-04T20:09:59.280Z,37.95
2023-03-04T20:12:25.680Z,37.95
2023-03-04T20:14:52.004Z,38.00
2023-03-04T20:17:19.590Z,37.99
2023-03-04T20:19:44.737Z,38.02
2023-03-04T20:22:11.230Z,38.06
2023-03-04T20:24:37.581Z,38.06
2023-03-04T20:27:04.033Z,38.04
2023-03-04T20:29:30.356Z,38.12
2023-03-04T20:31:56.752Z,38.14
2023-03-04T20:34:23.070Z,38.15
2023-03-04T20:36:49.491Z,38.14
2023-03-04T20:39:28.219Z,38.15
2023-03-04T20:41:42.210Z,38.24
2023-03-04T20:44:08.553Z,38.22
2023-03-04T20:46:34.973Z,38.23
2023-03-04T20:49:01.289Z,38.29
2023-03-04T20:51:27.661Z,38.29
2023-03-04T20:53:54.014Z,38.26
2023-03-04T20:56:20.392Z,38.34
2023-03-04T20:58:46.730Z,38.34
2023-03-04T21:01:13.131Z,38.33
2023-03-04T21:03:39.446Z,38.40
2023-03-04T21:06:05.832Z,38.40
2023-03-04T21:08:32.162Z,38.42
2023-03-04T21:10:58.561Z,38.43
2023-03-04T21:13:24.911Z,38.43
2023-03-04T21:15:51.338Z,38.47
2023-03-04T21:18:17.672Z,38.50
2023-03-04T21:20:44.061Z,38.50
2023-03-04T21:23:10.416Z,38.55
2023-03-04T21:25:36.812Z,38.54
2023-03-04T21:28:03.236Z,38.56
2023-03-04T21:30:29.644Z,38.59
2023-03-04T21:32:56.029Z,38.62
2023-03-04T21:35:22.460Z,38.63
2023-03-04T21:37:48.742Z,38.64
2023-03-04T21:40:15.173Z,38.68
2023-03-04T21:42:41.518Z,38.70
2023-03-04T21:45:07.903Z,38.72
2023-03-04T21:47:34.244Z,38.74
2023-03-04T21:50:00.649Z,38.74
2023-03-04T21:52:27.026Z,38.75
2023-03-04T21:54:53.429Z,38.77
2023-03-04T21:57:19.794Z,38.78
2023-03-04T21:59:46.174Z,38.84
2023-03-04T22:02:12.570Z,38.85
2023-03-04T22:04:38.928Z,38.83
2023-03-04T22:07:05.261Z,38.86
2023-03-04T22:09:31.647Z,38.90
2023-03-04T22:11:58.012Z,38.90
2023-03-04T22:14:24.419Z,38.92
2023-03-04T22:16:55.765Z,38.90
2023-03-04T22:19:17.162Z,38.92
2023-03-04T22:21:43.496Z,38.93
2023-03-04T22:24:09.916Z,38.92
2023-03-04T22:26:36.258Z,38.98
2023-03-04T22:29:02.688Z,39.00
2023-03-04T22:31:29.097Z,39.00
2023-03-04T22:33:57.955Z,39.02
2023-03-04T22:36:24.295Z,39.04
2023-03-04T22:38:50.680Z,39.09
2023-03-04T22:41:17.023Z,39.07
2023-03-04T22:43:43.433Z,39.11
2023-03-04T22:46:09.833Z,39.20
2023-03-04T22:48:36.159Z,39.19
2023-03-04T22:51:02.502Z,39.19
2023-03-04T22:53:28.891Z,39.20
2023-03-04T22:55:56.176Z,39.25
2023-03-04T22:58:21.596Z,39.27
2023-03-04T23:00:47.987Z,39.32
2023-03-04T23:03:14.722Z,39.31
2023-03-04T23:05:41.083Z,39.32
2023-03-04T23:08:07.458Z,39.38
2023-03-04T23:10:33.807Z,39.36
2023-03-04T23:13:00.179Z,39.36
2023-03-04T23:15:26.535Z,39.37
2023-03-04T23:17:52.928Z,39.40
2023-03-04T23:20:19.278Z,39.40
2023-03-04T23:22:45.730Z,39.43
2023-03-04T23:25:12.094Z,39.43
2023-03-04T23:27:38.504Z,39.44
2023-03-04T23:30:04.813Z,39.45
2023-03-04T23:32:31.270Z,39.47
2023-03-04T23:34:57.540Z,39.51
2023-03-04T23:37:23.928Z,39.52
2023-03-04T23:39:50.259Z,39.52
2023-03-04T23:42:16.655Z,39.58
2023-03-04T23:44:42.982Z,39.60
2023-03-04T23:47:09.364Z,39.61
2023-03-04T23:49:35.696Z,39.63
2023-03-04T23:52:02.091Z,39.65
2023-03-04T23:54:28.429Z,39.65
2023-03-04T23:56:54.821Z,39.68
2023-03-04T23:59:21.156Z,39.67
